Welcome to Des Moines Iowa Weather. I am an independent private personal weather station on the Northwest Side of Des Moines, Iowa. Just East of Windsor Heights and just West of Glendale . This site is also mobile friendly.

There are no active watches, warnings or advisories


Visit our other weather sites:

Historical Data

Weather Station Setup



Weather Underground History page Text

Daily Summary for June 13, 2017 Units:  English    Metric   Both
« Previous Day
Next Day »
Daily Weekly Monthly Yearly Custom
  High: Low: Average:
Temperature: 93.8 °F 73.9 °F 83.1 °F
Dew Point: 74.0 °F 68.0 °F 70.7 °F
Humidity: 86 % 47 % 68 %
Wind Speed: 8.0 mph 0.0 mph 0.8 mph
Wind Gust: 11.0 mph - -
Wind:- - SSW
Pressure: 29.79 in 29.63 in -
Precipitation: 0.00 in    
Historical Graphs
 
 
Tabular Data for June 13, 2017
Time Temperature Dew Point Pressure Wind Wind Speed Wind Gust Humidity Rainfall Rate (Hourly)
00:03 78.2 °F 72.0 °F 29.75 in Calm   2.0 mph 82 % 0.01 in
00:18 77.6 °F 72.0 °F 29.76 in Calm   3.0 mph 82 % 0.01 in
00:33 77.8 °F 72.0 °F 29.76 in Calm   4.0 mph 81 % 0.01 in
00:48 78.2 °F 71.0 °F 29.77 in Calm   2.0 mph 79 % 0.00 in
01:03 78.3 °F 71.0 °F 29.77 in ENE 2.0 mph 2.0 mph 79 % 0.00 in
01:18 78.3 °F 71.0 °F 29.78 in Calm     78 % 0.00 in
01:33 78.2 °F 71.0 °F 29.78 in Calm   2.0 mph 78 % 0.00 in
01:48 78.1 °F 71.0 °F 29.78 in Calm   1.0 mph 78 % 0.00 in
02:03 77.8 °F 70.0 °F 29.78 in Calm     78 % 0.00 in
02:33 77.0 °F 70.0 °F 29.79 in Calm     79 % 0.00 in
02:48 76.5 °F 70.0 °F 29.79 in Calm     80 % 0.00 in
03:03 76.0 °F 70.0 °F 29.78 in Calm     81 % 0.00 in
03:18 75.5 °F 70.0 °F 29.79 in Calm     82 % 0.00 in
03:33 75.1 °F 69.0 °F 29.78 in Calm     82 % 0.00 in
03:48 74.8 °F 69.0 °F 29.79 in Calm     83 % 0.00 in
04:03 74.7 °F 69.0 °F 29.78 in Calm   3.0 mph 83 % 0.00 in
04:18 74.7 °F 70.0 °F 29.79 in Calm   2.0 mph 84 % 0.00 in
04:33 74.8 °F 69.0 °F 29.79 in Calm   1.0 mph 83 % 0.00 in
04:48 74.8 °F 69.0 °F 29.78 in Calm   2.0 mph 83 % 0.00 in
05:03 74.8 °F 69.0 °F 29.78 in Calm   2.0 mph 83 % 0.00 in
05:19 74.7 °F 69.0 °F 29.78 in Calm   2.0 mph 83 % 0.00 in
05:34 74.5 °F 69.0 °F 29.78 in Calm   1.0 mph 83 % 0.00 in
05:48 74.2 °F 69.0 °F 29.78 in Calm   2.0 mph 84 % 0.00 in
06:04 74.0 °F 69.0 °F 29.78 in Calm   1.0 mph 85 % 0.00 in
06:19 73.9 °F 69.0 °F 29.78 in Calm   1.0 mph 85 % 0.00 in
06:34 73.9 °F 70.0 °F 29.78 in Calm   2.0 mph 86 % 0.00 in
06:49 74.1 °F 70.0 °F 29.78 in NE 1.0 mph 2.0 mph 86 % 0.00 in
07:04 74.4 °F 70.0 °F 29.78 in Calm   3.0 mph 86 % 0.00 in
07:19 74.9 °F 71.0 °F 29.78 in SSW 1.0 mph 4.0 mph 86 % 0.00 in
07:34 75.5 °F 71.0 °F 29.78 in Calm   4.0 mph 86 % 0.00 in
07:49 76.2 °F 71.0 °F 29.78 in Calm   5.0 mph 85 % 0.00 in
08:04 77.0 °F 72.0 °F 29.78 in Calm   2.0 mph 84 % 0.00 in
08:19 77.7 °F 72.0 °F 29.78 in Calm   4.0 mph 83 % 0.00 in
08:34 78.4 °F 73.0 °F 29.78 in SSE 2.0 mph 5.0 mph 82 % 0.00 in
08:49 79.1 °F 73.0 °F 29.77 in Calm   4.0 mph 82 % 0.00 in
09:04 79.6 °F 73.0 °F 29.77 in Calm   7.0 mph 80 % 0.00 in
09:19 80.3 °F 74.0 °F 29.76 in Calm   7.0 mph 80 % 0.00 in
09:34 80.9 °F 73.0 °F 29.77 in WSW 2.0 mph 4.0 mph 78 % 0.00 in
09:49 81.6 °F 73.0 °F 29.76 in Calm   5.0 mph 76 % 0.00 in
10:04 82.4 °F 74.0 °F 29.76 in South 1.0 mph 6.0 mph 75 % 0.00 in
10:19 83.5 °F 74.0 °F 29.76 in West 2.0 mph 9.0 mph 73 % 0.00 in
10:34 84.4 °F 74.0 °F 29.75 in Calm   6.0 mph 70 % 0.00 in
10:49 85.0 °F 73.0 °F 29.75 in Calm   11.0 mph 68 % 0.00 in
11:04 85.4 °F 73.0 °F 29.75 in Calm   7.0 mph 67 % 0.00 in
11:19 85.7 °F 74.0 °F 29.75 in ESE 2.0 mph 8.0 mph 68 % 0.00 in
11:34 86.0 °F 73.0 °F 29.74 in Calm   4.0 mph 66 % 0.00 in
11:49 86.9 °F 73.0 °F 29.75 in SSW 3.0 mph 10.0 mph 64 % 0.00 in
12:05 87.3 °F 74.0 °F 29.74 in Calm   7.0 mph 65 % 0.00 in
12:20 88.7 °F 73.0 °F 29.74 in WSW 1.0 mph 10.0 mph 60 % 0.00 in
12:35 89.3 °F 73.0 °F 29.74 in SSW 1.0 mph 8.0 mph 58 % 0.00 in
12:50 89.7 °F 73.0 °F 29.74 in Calm   9.0 mph 59 % 0.00 in
13:05 90.6 °F 73.0 °F 29.73 in SSE 4.0 mph 8.0 mph 57 % 0.00 in
13:20 90.2 °F 72.0 °F 29.73 in SSW 2.0 mph 8.0 mph 55 % 0.00 in
13:35 90.2 °F 72.0 °F 29.72 in South 2.0 mph 6.0 mph 56 % 0.00 in
13:50 90.6 °F 72.0 °F 29.72 in SW 2.0 mph 8.0 mph 55 % 0.00 in
14:05 90.4 °F 73.0 °F 29.71 in SSW 1.0 mph 7.0 mph 56 % 0.00 in
14:20 91.0 °F 72.0 °F 29.71 in NNW 4.0 mph 8.0 mph 53 % 0.00 in
14:35 91.9 °F 72.0 °F 29.70 in WSW 2.0 mph 9.0 mph 52 % 0.00 in
14:50 92.3 °F 72.0 °F 29.70 in West 8.0 mph 11.0 mph 52 % 0.00 in
15:05 92.8 °F 73.0 °F 29.69 in West 1.0 mph 7.0 mph 52 % 0.00 in
15:20 93.3 °F 71.0 °F 29.69 in Calm   7.0 mph 49 % 0.00 in
15:35 93.8 °F 71.0 °F 29.68 in SE 5.0 mph 10.0 mph 47 % 0.00 in
15:50 93.7 °F 71.0 °F 29.69 in ENE 1.0 mph 11.0 mph 47 % 0.00 in
16:05 93.7 °F 72.0 °F 29.68 in Calm   8.0 mph 49 % 0.00 in
16:20 93.2 °F 70.0 °F 29.67 in SSW 4.0 mph 10.0 mph 47 % 0.00 in
16:35 92.8 °F 70.0 °F 29.67 in Calm   8.0 mph 47 % 0.00 in
16:50 92.4 °F 71.0 °F 29.66 in WSW 3.0 mph 7.0 mph 49 % 0.00 in
17:05 92.3 °F 70.0 °F 29.66 in NNW 1.0 mph 10.0 mph 48 % 0.00 in
17:20 92.2 °F 70.0 °F 29.66 in Calm   10.0 mph 49 % 0.00 in
17:35 92.1 °F 71.0 °F 29.66 in NW 3.0 mph 11.0 mph 50 % 0.00 in
17:50 91.7 °F 70.0 °F 29.65 in Calm   10.0 mph 49 % 0.00 in
18:05 91.1 °F 69.0 °F 29.64 in SSW 4.0 mph 10.0 mph 49 % 0.00 in
18:20 90.1 °F 69.0 °F 29.64 in NNE 2.0 mph 9.0 mph 50 % 0.00 in
18:36 89.3 °F 69.0 °F 29.64 in Calm   10.0 mph 51 % 0.00 in
18:50 88.5 °F 69.0 °F 29.64 in ESE 3.0 mph 10.0 mph 52 % 0.00 in
19:05 87.6 °F 68.0 °F 29.65 in Calm   9.0 mph 53 % 0.00 in
19:21 87.2 °F 69.0 °F 29.64 in SSE 1.0 mph 6.0 mph 54 % 0.00 in
19:35 86.8 °F 69.0 °F 29.64 in Calm   7.0 mph 56 % 0.00 in
19:51 86.4 °F 69.0 °F 29.63 in Calm   5.0 mph 56 % 0.00 in
20:06 86.0 °F 68.0 °F 29.64 in SE 1.0 mph 5.0 mph 55 % 0.00 in
20:21 85.5 °F 68.0 °F 29.64 in Calm   5.0 mph 57 % 0.00 in
20:36 85.1 °F 69.0 °F 29.64 in Calm   4.0 mph 58 % 0.00 in
20:51 84.5 °F 69.0 °F 29.63 in Calm   4.0 mph 59 % 0.00 in
21:06 84.1 °F 68.0 °F 29.64 in Calm   4.0 mph 59 % 0.00 in
21:21 83.7 °F 68.0 °F 29.64 in Calm   3.0 mph 60 % 0.00 in
21:36 83.1 °F 69.0 °F 29.65 in Calm   4.0 mph 62 % 0.00 in
21:51 82.6 °F 69.0 °F 29.65 in ENE 3.0 mph 5.0 mph 63 % 0.00 in
22:06 82.2 °F 69.0 °F 29.67 in Calm   2.0 mph 65 % 0.00 in
22:21 81.8 °F 69.0 °F 29.67 in Calm   4.0 mph 66 % 0.00 in
22:36 81.5 °F 70.0 °F 29.67 in Calm   5.0 mph 67 % 0.00 in
22:51 81.1 °F 70.0 °F 29.69 in Calm   5.0 mph 68 % 0.00 in
23:06 80.9 °F 69.0 °F 29.69 in Calm   3.0 mph 68 % 0.00 in
23:21 80.7 °F 70.0 °F 29.69 in Calm   4.0 mph 69 % 0.00 in
23:36 80.4 °F 70.0 °F 29.69 in NNW 1.0 mph 6.0 mph 70 % 0.00 in
23:51 80.2 °F 70.0 °F 29.70 in Calm   2.0 mph 71 % 0.00 in
Des Moines Weather and Climate
Compliments of Weather Underground - 3 mb

Script developed by  Jim McMurry - jmcmurry@mwt.net Adapted for the template by  Wim van der Kuil - Leuven-Template.eu

You find our weather info also at:

Weather Underground

Equipment we use:

Weather-station
Davis VP2 Plus

Weather-program
Davis Weatherlink.Com

Weather-server
iMac (Retina 4K, 21.5-inch, Late 2015)

Provider
Hostmonster.com

Davis VP2 Plus

Davis Weatherlink.Com

iMac (Retina 4K, 21.5-inch, Late 2015)

Hostmonster.com